createdAt,value
2023-03-15T00:01:46.707Z,72.46
2023-03-15T00:06:48.367Z,71.05
2023-03-15T00:11:51.278Z,69.93
2023-03-15T00:16:54.806Z,69.94
2023-03-15T00:21:56.399Z,71.06
2023-03-15T00:26:58.059Z,72.74
2023-03-15T00:32:00.518Z,72.38
2023-03-15T00:37:02.254Z,72.51
2023-03-15T00:42:04.018Z,71.78
2023-03-15T00:47:05.650Z,71.91
2023-03-15T00:52:07.923Z,71.91
2023-03-15T00:57:11.957Z,69.94
2023-03-15T01:02:13.881Z,69.40
2023-03-15T01:07:15.554Z,68.36
2023-03-15T01:12:18.937Z,67.51
2023-03-15T01:17:23.817Z,67.97
2023-03-15T01:22:26.484Z,68.21
2023-03-15T01:27:28.148Z,69.10
2023-03-15T01:32:30.113Z,68.26
2023-03-15T01:37:31.810Z,68.17
2023-03-15T01:42:33.825Z,67.89
2023-03-15T01:47:35.649Z,67.01
2023-03-15T01:52:41.407Z,67.62
2023-03-15T01:57:56.149Z,66.77
2023-03-15T02:03:05.408Z,64.77
2023-03-15T02:08:08.739Z,63.25
2023-03-15T02:13:17.726Z,62.57
2023-03-15T02:18:20.789Z,61.70
2023-03-15T02:23:22.929Z,62.58
2023-03-15T02:28:25.320Z,62.23
2023-03-15T02:33:36.669Z,62.18
2023-03-15T02:38:38.272Z,62.09
2023-03-15T02:43:42.044Z,61.96
2023-03-15T02:48:47.112Z,60.59
2023-03-15T02:53:48.984Z,62.25
2023-03-15T02:58:50.910Z,63.56
2023-03-15T03:03:52.888Z,64.54
2023-03-15T03:08:54.835Z,63.99
2023-03-15T03:13:57.440Z,65.67
2023-03-15T03:19:00.103Z,64.97
2023-03-15T03:24:04.442Z,64.74
2023-03-15T03:29:06.093Z,63.74
2023-03-15T03:34:09.661Z,64.05
2023-03-15T03:39:11.458Z,63.34
2023-03-15T03:44:13.167Z,62.69
2023-03-15T03:49:16.288Z,62.12
2023-03-15T03:54:21.375Z,63.15
2023-03-15T03:59:23.189Z,61.93
2023-03-15T04:04:31.489Z,62.88
2023-03-15T04:09:37.403Z,63.64
2023-03-15T04:14:39.986Z,64.17
2023-03-15T04:19:46.939Z,65.13
2023-03-15T04:24:50.762Z,64.93
2023-03-15T04:30:06.129Z,64.64
2023-03-15T04:35:17.309Z,63.72
2023-03-15T04:40:26.081Z,63.63
2023-03-15T04:45:41.883Z,61.29
2023-03-15T04:51:01.883Z,62.18
2023-03-15T04:56:18.208Z,63.55
2023-03-15T05:01:55.372Z,63.92
2023-03-15T05:07:09.725Z,65.67
2023-03-15T05:12:29.854Z,68.43
2023-03-15T05:17:38.372Z,67.65
2023-03-15T05:23:01.255Z,69.78
2023-03-15T05:28:28.923Z,70.57
2023-03-15T05:33:49.049Z,71.53
2023-03-15T05:38:56.830Z,72.22
2023-03-15T05:44:17.945Z,71.37
2023-03-15T05:49:37.871Z,72.17
2023-03-15T05:54:59.728Z,73.50
2023-03-15T06:00:39.929Z,74.88
2023-03-15T06:05:51.417Z,74.57
2023-03-15T06:11:01.345Z,74.26
2023-03-15T06:16:03.339Z,74.16
2023-03-15T06:21:06.440Z,74.94
2023-03-15T06:26:08.284Z,75.30
2023-03-15T06:31:11.897Z,74.21
2023-03-15T06:36:24.922Z,74.64
2023-03-15T06:41:26.945Z,74.73
2023-03-15T06:46:35.592Z,74.30
2023-03-15T06:51:38.347Z,73.44
2023-03-15T06:56:40.304Z,73.94
2023-03-15T07:01:42.203Z,73.56
2023-03-15T07:06:43.954Z,73.83
2023-03-15T07:11:45.607Z,72.96
2023-03-15T07:16:48.273Z,74.77
2023-03-15T07:21:49.941Z,73.54
2023-03-15T07:26:56.373Z,73.77
2023-03-15T07:31:58.201Z,73.84
2023-03-15T07:36:59.813Z,72.86
2023-03-15T07:42:01.578Z,73.36
2023-03-15T07:47:13.284Z,72.55
2023-03-15T07:52:15.014Z,70.60
2023-03-15T07:57:16.762Z,72.54
2023-03-15T08:02:18.471Z,71.30
2023-03-15T08:07:20.176Z,69.95
2023-03-15T08:12:22.886Z,68.96
2023-03-15T08:17:24.581Z,68.26
2023-03-15T08:22:26.227Z,66.94
2023-03-15T08:27:27.907Z,66.63
2023-03-15T08:32:29.534Z,65.12
2023-03-15T08:37:31.341Z,61.05
2023-03-15T08:42:32.920Z,57.98
2023-03-15T08:47:35.448Z,58.10
2023-03-15T08:52:37.193Z,57.91
2023-03-15T08:57:39.352Z,55.28
2023-03-15T09:02:40.997Z,52.46
2023-03-15T09:07:43.639Z,56.18
2023-03-15T09:12:48.368Z,57.75
2023-03-15T09:17:53.353Z,56.93
2023-03-15T09:22:57.756Z,56.34
2023-03-15T09:27:59.479Z,55.14
2023-03-15T09:33:01.212Z,51.24
2023-03-15T09:38:04.081Z,47.95
2023-03-15T09:43:14.014Z,47.46
2023-03-15T09:48:21.880Z,45.88
2023-03-15T09:53:32.157Z,44.60
2023-03-15T09:58:35.458Z,45.62
2023-03-15T10:03:47.331Z,44.83
2023-03-15T10:08:52.494Z,46.15
2023-03-15T10:14:03.417Z,42.83
2023-03-15T10:19:39.652Z,42.49
2023-03-15T10:24:56.914Z,42.67
2023-03-15T10:30:00.543Z,41.38
2023-03-15T10:35:02.157Z,41.18
2023-03-15T10:40:09.781Z,41.65
2023-03-15T10:45:22.100Z,40.48
2023-03-15T10:50:31.611Z,39.45
2023-03-15T10:55:37.127Z,39.23
2023-03-15T11:00:38.764Z,38.77
2023-03-15T11:05:43.564Z,38.27
2023-03-15T11:10:46.992Z,36.97
2023-03-15T11:16:04.008Z,37.05
2023-03-15T11:21:10.484Z,36.30
2023-03-15T11:26:31.483Z,37.09
2023-03-15T11:31:36.327Z,35.14
2023-03-15T11:36:41.906Z,34.92
2023-03-15T11:41:56.560Z,39.92
2023-03-15T11:47:03.826Z,39.10
2023-03-15T11:52:05.865Z,40.93
2023-03-15T11:57:36.417Z,41.52
2023-03-15T12:02:53.071Z,41.35
2023-03-15T12:08:18.532Z,41.87
2023-03-15T12:13:25.014Z,42.86
2023-03-15T12:18:31.205Z,42.67
2023-03-15T12:23:39.218Z,41.45
2023-03-15T12:29:13.400Z,41.26
2023-03-15T12:34:43.031Z,40.18
2023-03-15T12:39:46.108Z,39.82
2023-03-15T12:44:47.725Z,40.92
2023-03-15T12:49:49.316Z,40.29
2023-03-15T12:55:01.182Z,40.10
2023-03-15T13:00:12.864Z,39.58
2023-03-15T13:05:19.947Z,40.08
2023-03-15T13:10:34.868Z,40.97
2023-03-15T13:15:55.088Z,40.96
2023-03-15T13:21:13.428Z,41.92
2023-03-15T13:26:24.986Z,42.16
2023-03-15T13:31:31.247Z,42.69
2023-03-15T13:36:46.061Z,42.30
2023-03-15T13:41:50.712Z,43.75
2023-03-15T13:46:53.790Z,43.93
2023-03-15T13:51:55.576Z,44.77
2023-03-15T13:57:07.471Z,45.22
2023-03-15T14:02:17.792Z,45.27
2023-03-15T14:07:34.056Z,46.29
2023-03-15T14:12:35.766Z,47.53
2023-03-15T14:17:37.368Z,48.85
2023-03-15T14:22:42.038Z,48.33
2023-03-15T14:27:44.172Z,49.23
2023-03-15T14:32:55.339Z,49.19
2023-03-15T14:38:24.061Z,49.94
2023-03-15T14:43:25.723Z,49.09
2023-03-15T14:48:30.082Z,47.63
2023-03-15T14:53:37.029Z,49.12
2023-03-15T14:58:39.060Z,49.73
2023-03-15T15:03:48.252Z,50.01
2023-03-15T15:08:55.242Z,50.94
2023-03-15T15:13:58.575Z,52.11
2023-03-15T15:19:00.179Z,52.12
2023-03-15T15:24:04.179Z,53.35
2023-03-15T15:29:06.019Z,53.36
2023-03-15T15:34:08.353Z,54.01
2023-03-15T15:39:24.516Z,54.12
2023-03-15T15:44:26.112Z,54.29
2023-03-15T15:49:27.712Z,54.54
2023-03-15T15:54:35.597Z,55.00
2023-03-15T15:59:37.311Z,54.86
2023-03-15T16:04:41.744Z,54.20
2023-03-15T16:09:46.380Z,55.56
2023-03-15T16:14:48.171Z,55.40
2023-03-15T16:19:57.232Z,55.83
2023-03-15T16:25:01.465Z,56.55
2023-03-15T16:30:04.894Z,57.63
2023-03-15T16:35:07.761Z,58.23
2023-03-15T16:40:18.435Z,59.11
2023-03-15T16:45:20.457Z,59.57
2023-03-15T16:50:22.487Z,59.93
2023-03-15T16:55:26.817Z,60.11
2023-03-15T17:00:30.846Z,60.33
2023-03-15T17:05:32.970Z,60.74
2023-03-15T17:10:34.715Z,60.52
2023-03-15T17:15:36.397Z,61.09
2023-03-15T17:20:38.204Z,61.27
2023-03-15T17:25:40.280Z,60.95
2023-03-15T17:30:42.269Z,61.34
2023-03-15T17:35:47.288Z,61.69
2023-03-15T17:40:49.031Z,62.65
2023-03-15T17:45:52.345Z,62.94
2023-03-15T17:50:54.014Z,62.76
2023-03-15T17:55:55.604Z,63.04
2023-03-15T18:00:57.749Z,62.25
2023-03-15T18:06:01.452Z,63.55
2023-03-15T18:11:03.176Z,63.46
2023-03-15T18:16:05.087Z,63.27
2023-03-15T18:21:12.892Z,63.87
2023-03-15T18:26:14.439Z,63.71
2023-03-15T18:31:19.219Z,63.69
2023-03-15T18:36:21.155Z,62.75
2023-03-15T18:41:27.321Z,61.61
2023-03-15T18:46:29.341Z,60.11
2023-03-15T18:51:30.934Z,59.51
2023-03-15T18:56:34.571Z,60.09
2023-03-15T19:01:36.282Z,58.22
2023-03-15T19:06:37.994Z,58.24
2023-03-15T19:11:41.848Z,58.15
2023-03-15T19:16:43.533Z,57.53
2023-03-15T19:21:45.207Z,56.89
2023-03-15T19:26:46.985Z,57.27
2023-03-15T19:31:48.792Z,56.91
2023-03-15T19:36:52.017Z,56.63
2023-03-15T19:41:53.929Z,57.21
2023-03-15T19:46:55.669Z,57.21
2023-03-15T19:51:57.442Z,57.28
2023-03-15T19:56:59.793Z,57.86
2023-03-15T20:02:01.622Z,56.88
2023-03-15T20:07:03.887Z,57.43
2023-03-15T20:12:07.175Z,57.92
2023-03-15T20:17:09.066Z,57.91
2023-03-15T20:22:10.846Z,58.10
2023-03-15T20:27:13.489Z,58.36
2023-03-15T20:32:15.219Z,58.17
2023-03-15T20:37:17.171Z,58.07
2023-03-15T20:42:21.776Z,57.97
2023-03-15T20:47:23.512Z,58.06
2023-03-15T20:52:25.532Z,57.84
2023-03-15T20:57:27.402Z,57.76
2023-03-15T21:02:29.138Z,57.52
2023-03-15T21:07:30.790Z,57.25
2023-03-15T21:12:32.957Z,57.27
2023-03-15T21:17:34.777Z,57.35
2023-03-15T21:22:36.912Z,56.74
2023-03-15T21:27:38.518Z,56.75
2023-03-15T21:32:41.715Z,57.13
2023-03-15T21:37:43.708Z,57.33
2023-03-15T21:42:47.876Z,57.14
2023-03-15T21:47:49.755Z,56.97
2023-03-15T21:52:51.405Z,57.51
2023-03-15T21:57:53.104Z,57.35
2023-03-15T22:02:55.928Z,57.66
2023-03-15T22:07:57.658Z,57.53
2023-03-15T22:12:59.274Z,58.02
2023-03-15T22:18:02.402Z,58.52
2023-03-15T22:23:04.733Z,58.87
2023-03-15T22:28:07.278Z,58.83
2023-03-15T22:33:09.771Z,59.66
2023-03-15T22:38:12.620Z,60.13
2023-03-15T22:43:14.648Z,59.92
2023-03-15T22:48:16.409Z,60.15
2023-03-15T22:53:18.183Z,60.30
2023-03-15T22:58:20.675Z,60.90
2023-03-15T23:03:22.543Z,60.75
2023-03-15T23:08:24.684Z,61.31
2023-03-15T23:13:26.411Z,61.48
2023-03-15T23:18:28.085Z,61.33
2023-03-15T23:23:29.792Z,61.55
2023-03-15T23:28:32.106Z,61.92
2023-03-15T23:33:36.895Z,62.07
2023-03-15T23:38:39.058Z,62.03
2023-03-15T23:43:41.585Z,62.69
2023-03-15T23:48:43.314Z,62.93
2023-03-15T23:53:44.974Z,62.77
2023-03-15T23:58:46.624Z,62.45
